Aérodrome :
LOGIN :

S'inscrire | Disclaimer

   EN    FR    IT 

 










Légende :    VFR   VFR Marginal   IFR   IFR Intensif   IFR Très Intensif
Visi : 
Plafond : 
>= 8 km
>= 3000ft
5 à 8 km
1000 à 3000 ft
1500m à 5 km
500 à 1000 ft
800 à 1500m
200 à 500 ft
< 800m
< 200 ft
Symboles :   Orages  Brouillard  Fortes neiges  Fortes précipitations  Vent > 20 kt
SIGMETs :   Divers  Orages  Givrage  Turbulence  Onde Orograph.  Cendres Volcan.






- Altitude de l'aérodrome : 1247 ft
- Code IATA : PRG


LKPR - Praha Ruzyne

DERNIER METAR :
  • 201130Z VRB03KT 3600 BR OVC005 05/04 Q1016 NOSIG

METARs EXPIRÉS :
  • 201100Z 03003KT 2700 BR OVC005 05/04 Q1016 NOSIG
  • 201040Z 06004KT 3000 BR OVC006 05/04 Q1016 RMK REG QNH 1013
  • 201030Z 06004KT 010V090 4200 BR BKN007 BKN012 05/04 Q1016 NOSIG
  • 201000Z 03003KT 330V070 4800 BR BKN007 BKN015 05/04 Q1017 NOSIG
  • 200939Z 06003KT 4800 BR BKN007 OVC013 05/03 Q1017 RMK REG QNH 1013
  • 200900Z VRB02KT 6000 FEW008 OVC014 05/03 Q1017 NOSIG
  • 200852Z VRB02KT 6000 FEW008 OVC014 05/03 Q1017 RMK REG QNH 1013

TAF TAF LKPR
Valide du 20 à 12h jusqu'au 21 à 18h UTC


201100Z 2012/2118 04005KT 2500 BR OVC004
TEMPO 2012/2016 4500 BR BKN007
BECMG 2016/2018 0700 -RADZ FG OVC002
TEMPO 2018/2116 0300 RADZ FG OVC001
BECMG 2114/2116 18008KT
BECMG 2116/2118 2000 BR SCT010 BKN015



MET'MAP, la Météo Aéronautique d'un coup d'oeil ! - Copyright ORBIFLY Décembre 2007 - Disclaimer

ORBIFLY MET'MAP TEAM :

Programmation & Développement : Alexandra Zaïnal
Conception & Développement : Baudouin d'Aumeries
Co-Programmation & Développement : Marc-Olivier Méhu
Soutien technique & logistique : Manuel Goepfert

Contact : metmap@orbifly.com




SOURCES & CREDITS :

   NOAA